Time;durP1;ratioP1;P1;durP2;ratioP2;P2;SDS_P1;SDS_P2;PMS_P1;PMS_P2;Temp;Humidity;BMP_temperature;BMP_pressure;BME280_temperature;BME280_humidity;BME280_pressure;Samples;Min_cycle;Max_cycle;Signal;HPM_P1;HPM_P2
2024/02/16 00:02:01;;;;;;;2.33;2.13;;;16.10;64.30;;;;;;5134501;27;20518;-68
2024/02/16 00:04:27;;;;;;;4.43;2.30;;;16.10;64.30;;;;;;5133771;27;20263;-68
2024/02/16 00:06:52;;;;;;;1.90;1.80;;;16.10;64.30;;;;;;5134757;27;20614;-68
2024/02/16 00:09:18;;;;;;;2.38;1.67;;;16.10;64.20;;;;;;5134406;27;20194;-68
2024/02/16 00:11:44;;;;;;;2.17;1.75;;;16.10;64.30;;;;;;5133770;27;20172;-68
2024/02/16 00:14:10;;;;;;;2.17;1.80;;;16.00;64.20;;;;;;5134379;27;20188;-68
2024/02/16 00:16:35;;;;;;;2.15;1.77;;;16.10;64.20;;;;;;5133410;27;20172;-68
2024/02/16 00:19:01;;;;;;;2.03;1.80;;;16.00;64.10;;;;;;5134451;27;20217;-68
2024/02/16 00:21:27;;;;;;;2.75;1.85;;;16.10;64.30;;;;;;5134082;27;20172;-68
2024/02/16 00:23:52;;;;;;;2.08;1.88;;;16.00;64.10;;;;;;5133639;27;20164;-68
2024/02/16 00:26:19;;;;;;;2.35;1.83;;;16.00;64.10;;;;;;5133969;27;20183;-68
2024/02/16 00:28:44;;;;;;;1.65;1.55;;;16.10;64.20;;;;;;5134192;27;20225;-68
2024/02/16 00:31:10;;;;;;;3.03;2.00;;;16.00;64.10;;;;;;5133270;27;20572;-68
2024/02/16 00:33:35;;;;;;;1.65;1.50;;;16.00;64.00;;;;;;5133590;27;20176;-67
2024/02/16 00:36:01;;;;;;;2.25;1.77;;;16.00;64.00;;;;;;5133932;27;20176;-67
2024/02/16 00:38:26;;;;;;;2.38;2.13;;;16.00;64.00;;;;;;5132930;27;20264;-68
2024/02/16 00:40:52;;;;;;;2.58;1.90;;;16.00;64.00;;;;;;5133984;27;20172;-68
2024/02/16 00:43:17;;;;;;;2.50;2.30;;;16.00;64.10;;;;;;5133609;27;20176;-68
2024/02/16 00:45:44;;;;;;;2.05;1.80;;;16.00;64.00;;;;;;5132894;27;20165;-68
2024/02/16 00:48:10;;;;;;;1.80;1.70;;;16.00;64.00;;;;;;5133935;27;20187;-67
2024/02/16 00:50:36;;;;;;;1.67;1.58;;;16.00;64.00;;;;;;5133606;27;20173;-68
2024/02/16 00:53:02;;;;;;;1.77;1.67;;;16.00;64.00;;;;;;5132910;27;20703;-67
2024/02/16 00:55:27;;;;;;;2.15;1.90;;;16.00;64.00;;;;;;5133285;27;20228;-68
2024/02/16 00:57:53;;;;;;;1.55;1.45;;;16.00;64.00;;;;;;5133485;27;20385;-68
2024/02/16 01:00:23;;;;;;;3.05;1.65;;;16.00;63.90;;;;;;5132483;27;20941;-68
2024/02/16 01:02:49;;;;;;;2.05;1.95;;;16.00;63.90;;;;;;5133509;27;20666;-68
2024/02/16 01:05:17;;;;;;;2.28;2.03;;;16.00;63.90;;;;;;5133653;27;20211;-68
2024/02/16 01:07:43;;;;;;;1.63;1.52;;;15.90;63.90;;;;;;5132746;27;20225;-68
2024/02/16 01:10:08;;;;;;;2.50;2.10;;;15.90;63.90;;;;;;5133500;27;20172;-68
2024/02/16 01:12:34;;;;;;;1.70;1.60;;;15.90;63.90;;;;;;5132962;27;20177;-68
2024/02/16 01:15:00;;;;;;;2.60;1.70;;;16.00;63.90;;;;;;5132600;27;20176;-68
2024/02/16 01:17:26;;;;;;;2.63;1.73;;;15.90;63.80;;;;;;5131583;27;20319;-68
2024/02/16 01:19:51;;;;;;;2.25;2.05;;;15.90;63.80;;;;;;5133318;27;20175;-68
2024/02/16 01:22:18;;;;;;;2.22;2.03;;;15.90;63.80;;;;;;5132547;27;20199;-68
2024/02/16 01:24:43;;;;;;;1.77;1.48;;;15.90;63.90;;;;;;5133253;27;20233;-68
2024/02/16 01:27:09;;;;;;;2.75;1.80;;;15.90;63.80;;;;;;5132457;27;20275;-68
2024/02/16 01:29:35;;;;;;;2.38;1.90;;;15.90;63.80;;;;;;5132827;27;20172;-68
2024/02/16 01:32:01;;;;;;;1.50;1.40;;;15.90;63.80;;;;;;5133026;27;20183;-67
2024/02/16 01:34:27;;;;;;;3.47;1.98;;;15.90;63.80;;;;;;5132096;27;20305;-67
2024/02/16 01:36:52;;;;;;;1.67;1.55;;;15.90;63.80;;;;;;5133041;28;20290;-67
2024/02/16 01:39:18;;;;;;;1.70;1.60;;;15.90;63.80;;;;;;5132901;28;20287;-68
2024/02/16 01:41:43;;;;;;;1.85;1.75;;;15.90;63.80;;;;;;5132041;28;20176;-68
2024/02/16 01:44:09;;;;;;;1.38;1.27;;;15.90;63.70;;;;;;5132861;28;20184;-67
2024/02/16 01:46:35;;;;;;;2.08;1.60;;;15.90;63.80;;;;;;5132580;27;20177;-67
2024/02/16 01:49:01;;;;;;;2.40;1.85;;;15.90;63.80;;;;;;5132484;27;20208;-67
2024/02/16 01:51:26;;;;;;;3.00;1.90;;;15.90;63.80;;;;;;5132520;28;20585;-67
2024/02/16 01:53:52;;;;;;;2.60;1.88;;;15.90;63.70;;;;;;5131706;28;20208;-67
2024/02/16 01:56:20;;;;;;;2.30;1.73;;;15.90;63.80;;;;;;5131806;28;20299;-68
2024/02/16 01:58:46;;;;;;;1.70;1.40;;;15.90;63.70;;;;;;5131610;28;20231;-69
2024/02/16 02:01:12;;;;;;;1.50;1.40;;;15.80;63.70;;;;;;5133047;27;20169;-68
2024/02/16 02:03:37;;;;;;;1.60;1.50;;;15.80;63.60;;;;;;5131996;27;20672;-68
2024/02/16 02:06:03;;;;;;;1.60;1.50;;;15.80;63.60;;;;;;5132902;28;20169;-68
2024/02/16 02:08:28;;;;;;;3.20;1.80;;;15.80;63.60;;;;;;5132523;28;20543;-68
2024/02/16 02:10:54;;;;;;;1.40;1.30;;;15.80;63.60;;;;;;5132036;28;20610;-68
2024/02/16 02:13:22;;;;;;;1.52;1.42;;;15.80;63.60;;;;;;5132308;28;20176;-68
2024/02/16 02:15:48;;;;;;;2.13;1.70;;;15.90;63.80;;;;;;5132674;27;20650;-68
2024/02/16 02:18:14;;;;;;;2.25;1.67;;;15.80;63.60;;;;;;5133526;27;20208;-68
2024/02/16 02:20:39;;;;;;;1.80;1.70;;;15.80;63.60;;;;;;5136464;27;20799;-69
2024/02/16 02:23:05;;;;;;;1.92;1.55;;;15.80;63.60;;;;;;5136510;27;20180;-68
2024/02/16 02:25:30;;;;;;;1.70;1.45;;;15.80;63.60;;;;;;5135574;27;20176;-68
2024/02/16 02:27:56;;;;;;;2.33;1.88;;;15.80;63.60;;;;;;5136304;27;20210;-68
2024/02/16 02:30:22;;;;;;;1.63;1.50;;;15.80;63.60;;;;;;5135567;27;20172;-67
2024/02/16 02:32:49;;;;;;;1.90;1.58;;;15.80;63.60;;;;;;5136554;27;20223;-68
2024/02/16 02:35:16;;;;;;;2.03;1.67;;;15.80;63.60;;;;;;5136528;27;20259;-67
2024/02/16 02:37:41;;;;;;;1.65;1.50;;;15.80;63.60;;;;;;5135469;27;20204;-68
2024/02/16 02:40:08;;;;;;;2.10;1.65;;;15.80;63.60;;;;;;5136500;27;20176;-68
2024/02/16 02:42:34;;;;;;;1.85;1.65;;;15.80;63.70;;;;;;5135688;27;20667;-68
2024/02/16 02:45:00;;;;;;;1.52;1.35;;;15.80;63.50;;;;;;5135467;27;20180;-68
2024/02/16 02:47:26;;;;;;;1.52;1.42;;;15.70;63.60;;;;;;5135973;27;20176;-67
2024/02/16 02:49:51;;;;;;;1.80;1.70;;;15.80;63.60;;;;;;5136034;27;20674;-67
2024/02/16 02:52:17;;;;;;;2.42;1.55;;;15.80;63.50;;;;;;5135088;27;20173;-67
2024/02/16 02:54:42;;;;;;;2.90;1.52;;;15.70;63.50;;;;;;5135727;27;20168;-67
2024/02/16 02:57:08;;;;;;;2.05;1.73;;;15.70;63.50;;;;;;5135872;27;20214;-68
2024/02/16 02:59:34;;;;;;;2.97;1.65;;;15.70;63.60;;;;;;5134791;27;20297;-69
2024/02/16 03:01:59;;;;;;;1.73;1.60;;;15.80;63.60;;;;;;5136037;27;20176;-68
2024/02/16 03:04:25;;;;;;;2.08;1.50;;;15.70;63.50;;;;;;5135638;27;20169;-68
2024/02/16 03:06:54;;;;;;;1.50;1.40;;;15.70;63.50;;;;;;5135151;27;20180;-68
2024/02/16 03:09:19;;;;;;;1.63;1.52;;;15.70;63.50;;;;;;5135333;27;20169;-68
2024/02/16 03:11:45;;;;;;;1.60;1.50;;;15.70;63.50;;;;;;5135596;27;20187;-68
2024/02/16 03:14:10;;;;;;;1.50;1.40;;;15.70;63.50;;;;;;5135103;27;20184;-68
2024/02/16 03:16:36;;;;;;;2.63;1.40;;;15.80;63.60;;;;;;5135344;27;20168;-68
2024/02/16 03:19:01;;;;;;;1.50;1.40;;;15.70;63.50;;;;;;5135587;27;20176;-68
2024/02/16 03:21:27;;;;;;;2.70;1.50;;;15.70;63.50;;;;;;5134478;27;20691;-68
2024/02/16 03:23:52;;;;;;;1.33;1.23;;;15.70;63.50;;;;;;5135262;27;20179;-68
2024/02/16 03:26:19;;;;;;;2.30;1.73;;;15.70;63.50;;;;;;5135081;27;20180;-68
2024/02/16 03:28:47;;;;;;;2.25;1.58;;;15.70;63.60;;;;;;5134493;27;20172;-68
2024/02/16 03:31:20;;;;;;;1.85;1.50;;;15.70;63.50;;;;;;5134588;27;20180;-67
2024/02/16 03:33:46;;;;;;;2.25;1.65;;;15.70;63.50;;;;;;5134502;27;20902;-68
2024/02/16 03:36:13;;;;;;;1.58;1.48;;;15.70;63.50;;;;;;5135267;27;20180;-68
2024/02/16 03:38:41;;;;;;;1.48;1.30;;;15.70;63.50;;;;;;5134776;27;20216;-68
2024/02/16 03:41:07;;;;;;;1.48;1.38;;;15.70;63.50;;;;;;5134732;27;20176;-68
2024/02/16 03:43:32;;;;;;;2.30;1.55;;;15.70;63.50;;;;;;5134600;27;20558;-67
2024/02/16 03:45:58;;;;;;;1.50;1.40;;;15.70;63.50;;;;;;5135120;27;20237;-67
2024/02/16 03:48:24;;;;;;;1.73;1.45;;;15.70;63.50;;;;;;5133981;27;20169;-67
2024/02/16 03:50:49;;;;;;;1.92;1.60;;;15.70;63.50;;;;;;5134947;27;20573;-67
2024/02/16 03:53:15;;;;;;;1.42;1.33;;;15.70;63.50;;;;;;5134892;27;20177;-67
2024/02/16 03:55:41;;;;;;;1.60;1.50;;;15.70;63.50;;;;;;5133504;27;20702;-67
2024/02/16 03:58:07;;;;;;;1.30;1.20;;;15.70;63.50;;;;;;5134868;27;20261;-68
2024/02/16 04:00:32;;;;;;;1.45;1.35;;;15.70;63.50;;;;;;5134574;27;20164;-68
2024/02/16 04:02:59;;;;;;;1.38;1.27;;;15.70;63.50;;;;;;5134061;27;20176;-68
2024/02/16 04:05:30;;;;;;;1.92;1.30;;;15.70;63.50;;;;;;5134268;27;20172;-67
2024/02/16 04:07:56;;;;;;;1.73;1.63;;;15.70;63.50;;;;;;5134482;27;20176;-67
2024/02/16 04:10:21;;;;;;;1.48;1.38;;;15.70;63.50;;;;;;5133647;27;20195;-68
2024/02/16 04:12:47;;;;;;;1.67;1.25;;;15.60;63.50;;;;;;5134671;27;20537;-68
2024/02/16 04:15:12;;;;;;;1.30;1.20;;;15.60;63.50;;;;;;5134516;27;20604;-68
2024/02/16 04:17:38;;;;;;;1.55;1.45;;;15.60;63.50;;;;;;5133299;27;20200;-67
2024/02/16 04:20:04;;;;;;;1.90;1.30;;;15.60;63.50;;;;;;5134338;27;20580;-67
2024/02/16 04:22:30;;;;;;;1.60;1.50;;;15.70;63.50;;;;;;5133774;27;20172;-68
2024/02/16 04:24:55;;;;;;;2.35;1.48;;;15.60;63.50;;;;;;5133532;27;20938;-68
2024/02/16 04:27:21;;;;;;;3.40;1.70;;;15.60;63.50;;;;;;5133971;27;20172;-67
2024/02/16 04:29:46;;;;;;;1.83;1.48;;;15.60;63.50;;;;;;5133959;27;20180;-67
2024/02/16 04:32:25;;;;;;;2.25;1.40;;;15.70;63.60;;;;;;5133958;27;20161;-68
2024/02/16 04:34:52;;;;;;;1.75;1.33;;;15.60;63.50;;;;;;5134093;27;20176;-66
2024/02/16 04:37:18;;;;;;;1.52;1.42;;;15.60;63.50;;;;;;5132949;27;21035;-68
2024/02/16 04:39:44;;;;;;;1.98;1.55;;;15.60;63.50;;;;;;5134133;27;20172;-68
2024/02/16 04:42:10;;;;;;;2.88;1.50;;;15.60;63.50;;;;;;5133717;27;20220;-67
2024/02/16 04:44:39;;;;;;;1.55;1.40;;;15.60;63.50;;;;;;5132932;27;20654;-68
2024/02/16 04:47:05;;;;;;;1.40;1.30;;;15.60;63.50;;;;;;5133869;27;20168;-68
2024/02/16 04:49:30;;;;;;;1.77;1.63;;;15.60;63.50;;;;;;5133412;27;20532;-68
2024/02/16 04:51:56;;;;;;;1.63;1.52;;;15.60;63.50;;;;;;5132937;27;20219;-67
2024/02/16 04:54:22;;;;;;;1.92;1.50;;;15.60;63.50;;;;;;5133296;27;20173;-68
2024/02/16 04:56:48;;;;;;;1.58;1.48;;;15.60;63.50;;;;;;5133319;27;20236;-69
2024/02/16 04:59:14;;;;;;;1.60;1.50;;;15.60;63.50;;;;;;5133009;27;20175;-68
2024/02/16 05:01:40;;;;;;;1.55;1.45;;;15.60;63.50;;;;;;5133256;27;20184;-69
2024/02/16 05:04:06;;;;;;;1.60;1.50;;;15.60;63.50;;;;;;5133373;27;20180;-68
2024/02/16 05:06:32;;;;;;;1.95;1.40;;;15.60;63.50;;;;;;5132423;27;20175;-68
2024/02/16 05:08:58;;;;;;;1.40;1.30;;;15.60;63.50;;;;;;5133474;27;20180;-68
2024/02/16 05:11:24;;;;;;;1.60;1.50;;;15.60;63.50;;;;;;5133197;27;20214;-68
2024/02/16 05:13:50;;;;;;;1.63;1.52;;;15.60;63.50;;;;;;5132761;27;20274;-68
2024/02/16 05:16:16;;;;;;;1.65;1.40;;;15.60;63.50;;;;;;5133338;27;20199;-69
2024/02/16 05:18:42;;;;;;;1.85;1.45;;;15.60;63.50;;;;;;5133066;27;20226;-69
2024/02/16 05:21:07;;;;;;;1.75;1.65;;;15.60;63.50;;;;;;5132839;27;20168;-69
2024/02/16 05:23:33;;;;;;;2.20;1.40;;;15.60;63.50;;;;;;5132947;27;20256;-70
2024/02/16 05:25:59;;;;;;;1.50;1.40;;;15.60;63.50;;;;;;5133149;27;20537;-69
2024/02/16 05:28:24;;;;;;;1.80;1.55;;;15.60;63.50;;;;;;5132225;27;20177;-69
2024/02/16 05:30:50;;;;;;;2.40;1.50;;;15.60;63.50;;;;;;5133184;27;20169;-68
2024/02/16 05:33:15;;;;;;;1.92;1.40;;;15.60;63.50;;;;;;5132329;27;20168;-68
2024/02/16 05:35:41;;;;;;;1.40;1.30;;;15.60;63.50;;;;;;5132790;27;20172;-68
2024/02/16 05:38:31;;;;;;;1.45;1.35;;;15.60;63.50;;;;;;5133442;27;20215;-69
2024/02/16 05:40:57;;;;;;;1.60;1.50;;;15.50;63.40;;;;;;5132607;27;20172;-69
2024/02/16 05:43:23;;;;;;;1.50;1.40;;;15.50;63.50;;;;;;5132809;28;20187;-69
2024/02/16 05:45:49;;;;;;;2.33;1.30;;;15.50;63.50;;;;;;5133143;27;20176;-68
2024/02/16 05:48:14;;;;;;;2.45;1.45;;;15.60;63.60;;;;;;5132626;27;20176;-68
2024/02/16 05:50:40;;;;;;;1.45;1.35;;;15.60;63.50;;;;;;5133006;27;20611;-68
2024/02/16 05:53:06;;;;;;;2.53;1.45;;;15.50;63.50;;;;;;5134580;27;20180;-68
2024/02/16 05:55:32;;;;;;;1.85;1.60;;;15.60;63.50;;;;;;5136015;27;20589;-69
2024/02/16 05:57:57;;;;;;;1.73;1.42;;;15.50;63.50;;;;;;5137111;27;20256;-69
2024/02/16 06:00:23;;;;;;;1.60;1.40;;;15.60;63.50;;;;;;5136644;27;20585;-69
2024/02/16 06:02:49;;;;;;;1.50;1.40;;;15.50;63.60;;;;;;5136261;27;20168;-70
2024/02/16 06:05:14;;;;;;;2.05;1.83;;;15.60;63.60;;;;;;5136922;27;20179;-68
2024/02/16 06:07:40;;;;;;;1.40;1.30;;;15.50;63.50;;;;;;5136624;27;20176;-69
2024/02/16 06:10:10;;;;;;;2.20;1.83;;;15.50;63.50;;;;;;5136202;27;20164;-69
2024/02/16 06:12:39;;;;;;;1.48;1.38;;;15.50;63.50;;;;;;5136557;27;20172;-69
2024/02/16 06:15:05;;;;;;;1.65;1.48;;;15.50;63.60;;;;;;5136693;27;20641;-68
2024/02/16 06:17:30;;;;;;;1.38;1.27;;;15.60;63.60;;;;;;5135681;27;20212;-68
2024/02/16 06:19:56;;;;;;;1.98;1.50;;;15.50;63.50;;;;;;5136585;27;20523;-69
2024/02/16 06:22:22;;;;;;;1.55;1.45;;;15.60;63.60;;;;;;5135485;27;20208;-69
2024/02/16 06:24:47;;;;;;;1.60;1.50;;;15.50;63.50;;;;;;5136484;27;20164;-70
2024/02/16 06:27:13;;;;;;;1.70;1.52;;;15.50;63.60;;;;;;5136535;27;20168;-69
2024/02/16 06:29:38;;;;;;;1.45;1.35;;;15.50;63.50;;;;;;5135336;27;20221;-69
2024/02/16 06:32:04;;;;;;;1.50;1.40;;;15.50;63.50;;;;;;5136410;27;20204;-68
2024/02/16 06:34:30;;;;;;;1.77;1.50;;;15.50;63.60;;;;;;5136229;27;20237;-69
2024/02/16 06:36:56;;;;;;;1.48;1.38;;;15.50;63.60;;;;;;5135750;27;20172;-69
2024/02/16 06:39:22;;;;;;;1.67;1.13;;;15.50;63.60;;;;;;5136036;27;20179;-69
2024/02/16 06:41:47;;;;;;;2.03;1.75;;;15.50;63.60;;;;;;5136240;27;20631;-69
2024/02/16 06:44:14;;;;;;;1.88;1.40;;;15.50;63.60;;;;;;5135447;27;20164;-68
2024/02/16 06:46:39;;;;;;;2.00;1.80;;;15.50;63.60;;;;;;5136019;27;20204;-68
2024/02/16 06:49:05;;;;;;;1.67;1.58;;;15.50;63.60;;;;;;5135067;27;20188;-68
2024/02/16 06:51:31;;;;;;;2.78;1.75;;;15.50;63.60;;;;;;5135133;27;20514;-68
2024/02/16 06:53:56;;;;;;;1.73;1.63;;;15.60;63.80;;;;;;5135913;27;20534;-68
2024/02/16 06:56:22;;;;;;;1.75;1.55;;;15.60;63.60;;;;;;5135488;27;20323;-69
2024/02/16 06:58:47;;;;;;;1.63;1.52;;;15.70;63.60;;;;;;5135046;27;20299;-70
2024/02/16 07:01:13;;;;;;;1.50;1.40;;;15.80;64.40;;;;;;5136031;27;20259;-69
2024/02/16 07:03:39;;;;;;;1.80;1.70;;;16.00;63.30;;;;;;5135515;27;20520;-69
2024/02/16 07:06:09;;;;;;;2.75;1.63;;;16.10;62.90;;;;;;5134990;27;20179;-69
2024/02/16 07:08:38;;;;;;;1.45;1.20;;;16.30;62.70;;;;;;5135583;27;20203;-68
2024/02/16 07:11:05;;;;;;;1.50;1.40;;;16.40;62.40;;;;;;5135647;27;20165;-69
2024/02/16 07:13:34;;;;;;;2.95;1.40;;;16.60;62.10;;;;;;5134515;27;20214;-68
2024/02/16 07:16:00;;;;;;;1.58;1.48;;;16.70;61.90;;;;;;5135726;27;20229;-68
2024/02/16 07:18:25;;;;;;;2.30;1.13;;;16.80;61.60;;;;;;5135128;27;20216;-68
2024/02/16 07:20:51;;;;;;;1.45;1.35;;;17.00;61.40;;;;;;5134921;27;20169;-68
2024/02/16 07:23:17;;;;;;;1.73;1.30;;;17.10;61.00;;;;;;5135381;27;20665;-68
2024/02/16 07:25:43;;;;;;;1.85;1.75;;;17.10;60.90;;;;;;5134657;27;20261;-69
2024/02/16 07:28:08;;;;;;;1.23;1.13;;;17.10;60.90;;;;;;5135219;27;20184;-68
2024/02/16 07:30:36;;;;;;;1.58;1.35;;;17.20;60.80;;;;;;5135135;27;20164;-67
2024/02/16 07:33:02;;;;;;;1.77;1.65;;;17.20;60.70;;;;;;5134448;27;20248;-68
2024/02/16 07:35:27;;;;;;;1.30;1.20;;;17.30;60.50;;;;;;5134894;27;20210;-68
2024/02/16 07:37:54;;;;;;;1.92;1.33;;;17.40;60.30;;;;;;5135015;27;20562;-68
2024/02/16 07:40:20;;;;;;;1.35;1.25;;;17.50;60.20;;;;;;5134050;27;20533;-68
2024/02/16 07:42:45;;;;;;;1.40;1.30;;;17.50;60.00;;;;;;5135069;27;20181;-68
2024/02/16 07:45:11;;;;;;;1.73;1.20;;;17.50;59.90;;;;;;5135160;27;20710;-67
2024/02/16 07:47:38;;;;;;;1.30;1.20;;;17.50;59.90;;;;;;5134158;27;20180;-67
2024/02/16 07:50:06;;;;;;;1.60;1.30;;;17.50;60.00;;;;;;5135024;27;20248;-67
2024/02/16 07:52:32;;;;;;;1.77;1.35;;;17.50;60.70;;;;;;5134572;27;20251;-67
2024/02/16 07:54:58;;;;;;;1.88;1.50;;;17.60;59.90;;;;;;5134006;27;20675;-68
2024/02/16 07:57:23;;;;;;;1.50;1.40;;;17.60;60.70;;;;;;5134373;27;20251;-68
2024/02/16 07:59:49;;;;;;;1.75;1.50;;;17.60;59.90;;;;;;5134719;27;20172;-69
2024/02/16 08:02:15;;;;;;;4.05;1.50;;;17.60;59.90;;;;;;5134049;27;20183;-68
2024/02/16 08:04:41;;;;;;;1.52;1.42;;;17.50;59.90;;;;;;5134454;27;20172;-68
2024/02/16 08:07:07;;;;;;;1.40;1.23;;;17.50;59.90;;;;;;5134677;27;20237;-68
2024/02/16 08:09:33;;;;;;;1.70;1.55;;;17.60;59.90;;;;;;5133475;27;20638;-69
2024/02/16 08:11:59;;;;;;;2.03;1.50;;;17.60;59.90;;;;;;5134651;27;20179;-68
2024/02/16 08:14:25;;;;;;;2.67;1.52;;;17.60;60.10;;;;;;5134317;27;20216;-68
2024/02/16 08:16:50;;;;;;;1.50;1.40;;;17.60;60.00;;;;;;5133064;27;20180;-69
2024/02/16 08:19:19;;;;;;;1.70;1.40;;;17.60;60.00;;;;;;5134229;27;20264;-68
2024/02/16 08:21:44;;;;;;;1.42;1.08;;;17.60;60.10;;;;;;5134226;27;20168;-68
2024/02/16 08:24:10;;;;;;;2.28;1.60;;;17.50;60.00;;;;;;5133566;27;20180;-68
2024/02/16 08:26:35;;;;;;;1.63;1.52;;;17.60;60.00;;;;;;5134158;27;20164;-68
2024/02/16 08:29:01;;;;;;;1.40;1.30;;;17.60;60.00;;;;;;5133394;27;20528;-68
2024/02/16 08:31:26;;;;;;;1.83;1.40;;;17.60;60.00;;;;;;5133671;27;20173;-67
2024/02/16 08:33:52;;;;;;;1.67;1.35;;;17.60;60.00;;;;;;5134024;27;20177;-67
2024/02/16 08:36:17;;;;;;;1.92;1.65;;;17.60;60.10;;;;;;5133126;27;20175;-67
2024/02/16 08:38:43;;;;;;;1.38;1.27;;;17.60;60.00;;;;;;5133607;27;20235;-68
2024/02/16 08:41:09;;;;;;;1.67;1.33;;;17.60;60.10;;;;;;5133799;27;20533;-68
2024/02/16 08:43:35;;;;;;;1.92;1.40;;;17.70;60.10;;;;;;5133035;27;20160;-68
2024/02/16 08:46:00;;;;;;;1.40;1.30;;;17.60;60.10;;;;;;5133878;27;20177;-67
2024/02/16 08:48:26;;;;;;;2.97;1.77;;;17.70;60.10;;;;;;5133431;27;20168;-66
2024/02/16 08:50:51;;;;;;;1.70;1.42;;;17.60;60.10;;;;;;5132919;27;20523;-67
2024/02/16 08:53:17;;;;;;;1.63;1.48;;;17.60;60.10;;;;;;5133401;27;20173;-67
2024/02/16 08:55:45;;;;;;;1.95;1.42;;;17.50;60.20;;;;;;5133191;27;20226;-68
2024/02/16 08:58:12;;;;;;;1.60;1.40;;;17.40;60.40;;;;;;5132771;27;20697;-68
2024/02/16 09:00:38;;;;;;;2.22;1.50;;;17.30;60.70;;;;;;5133219;27;20198;-68
2024/02/16 09:03:06;;;;;;;2.20;1.42;;;17.40;60.90;;;;;;5133641;27;20646;-68
2024/02/16 09:05:31;;;;;;;2.28;1.67;;;17.30;60.90;;;;;;5132455;27;20176;-68
2024/02/16 09:07:57;;;;;;;1.30;1.20;;;17.30;61.10;;;;;;5133270;27;20588;-68
2024/02/16 09:10:22;;;;;;;2.25;1.60;;;17.20;61.10;;;;;;5133277;27;20171;-68
2024/02/16 09:12:48;;;;;;;1.45;1.35;;;17.20;61.30;;;;;;5132541;27;20541;-68
2024/02/16 09:15:14;;;;;;;1.60;1.50;;;17.10;61.30;;;;;;5133447;27;20172;-67
2024/02/16 09:17:39;;;;;;;1.83;1.50;;;17.10;61.40;;;;;;5133024;27;20573;-68
2024/02/16 09:20:08;;;;;;;2.75;1.45;;;17.10;61.70;;;;;;5132483;27;20164;-68
2024/02/16 09:22:33;;;;;;;1.60;1.50;;;17.10;61.70;;;;;;5132757;27;20177;-68
2024/02/16 09:24:59;;;;;;;1.40;1.30;;;17.10;61.80;;;;;;5133092;27;20168;-68
2024/02/16 09:27:25;;;;;;;1.60;1.50;;;17.10;61.70;;;;;;5131179;27;20204;-68
2024/02/16 09:29:51;;;;;;;1.48;1.27;;;17.10;61.80;;;;;;5133297;27;20207;-67
2024/02/16 09:32:17;;;;;;;2.15;1.45;;;17.10;61.80;;;;;;5132254;27;20515;-67
2024/02/16 09:34:43;;;;;;;1.65;1.42;;;17.10;61.80;;;;;;5133025;27;20212;-68
2024/02/16 09:37:08;;;;;;;1.50;1.40;;;17.00;61.80;;;;;;5132877;27;20196;-68
2024/02/16 09:39:34;;;;;;;1.88;1.48;;;17.00;61.90;;;;;;5132282;27;20183;-67
2024/02/16 09:42:00;;;;;;;2.05;1.63;;;17.00;61.90;;;;;;5133211;27;20179;-67
2024/02/16 09:44:25;;;;;;;2.03;1.85;;;17.00;62.00;;;;;;5132771;27;20173;-67
2024/02/16 09:46:53;;;;;;;1.50;1.40;;;17.00;62.10;;;;;;5114174;28;20529;-67
2024/02/16 09:49:19;;;;;;;1.60;1.50;;;17.00;62.20;;;;;;5114502;28;20641;-67
2024/02/16 09:51:45;;;;;;;1.50;1.33;;;17.00;62.20;;;;;;5131681;28;20188;-67
2024/02/16 09:54:11;;;;;;;1.70;1.60;;;17.00;62.10;;;;;;5130913;28;20176;-68
2024/02/16 09:56:37;;;;;;;1.42;1.33;;;17.00;62.10;;;;;;5131193;27;20643;-68
2024/02/16 09:59:02;;;;;;;2.58;1.60;;;17.00;62.10;;;;;;5132917;27;20204;-68
2024/02/16 10:01:29;;;;;;;2.28;1.60;;;17.00;62.10;;;;;;5131874;28;20165;-68
2024/02/16 10:03:59;;;;;;;2.10;1.90;;;17.00;62.20;;;;;;5132820;27;20690;-68
2024/02/16 10:06:25;;;;;;;1.60;1.50;;;16.90;62.20;;;;;;5131306;28;20172;-68
2024/02/16 10:08:51;;;;;;;1.95;1.73;;;16.90;62.40;;;;;;5132213;28;20267;-68
2024/02/16 10:11:21;;;;;;;1.60;1.50;;;16.90;62.40;;;;;;5132412;27;20605;-68
2024/02/16 10:13:59;;;;;;;2.20;1.60;;;16.90;62.50;;;;;;5132822;27;20187;-67
2024/02/16 10:16:25;;;;;;;1.73;1.60;;;16.90;62.50;;;;;;5131697;27;20221;-68
2024/02/16 10:18:50;;;;;;;1.75;1.45;;;16.80;62.40;;;;;;5132512;27;20212;-68
2024/02/16 10:21:28;;;;;;;1.23;1.13;;;16.80;62.50;;;;;;5132798;28;20534;-68
2024/02/16 10:24:01;;;;;;;1.42;1.33;;;16.80;62.50;;;;;;5132625;27;20813;-68
2024/02/16 10:26:27;;;;;;;1.67;1.52;;;16.80;62.60;;;;;;5132288;27;20229;-68
2024/02/16 10:28:54;;;;;;;1.92;1.67;;;16.80;62.60;;;;;;5131952;27;20194;-68
2024/02/16 10:31:25;;;;;;;2.20;1.77;;;16.80;62.60;;;;;;5130928;27;20192;-67
2024/02/16 10:33:50;;;;;;;2.80;1.60;;;16.80;63.60;;;;;;5115180;28;20183;-67
2024/02/16 10:36:16;;;;;;;1.60;1.48;;;16.80;62.80;;;;;;5113658;28;20176;-68
2024/02/16 10:38:42;;;;;;;2.10;1.70;;;16.70;62.90;;;;;;5132868;27;20257;-69
2024/02/16 10:41:08;;;;;;;2.00;1.40;;;16.70;63.00;;;;;;5118094;27;20249;-68
2024/02/16 10:43:33;;;;;;;2.70;1.80;;;16.70;63.10;;;;;;5133931;27;20317;-68
2024/02/16 10:45:59;;;;;;;2.42;1.70;;;16.70;63.20;;;;;;5136210;27;20221;-67
2024/02/16 10:48:24;;;;;;;1.52;1.42;;;16.70;63.30;;;;;;5117350;27;20536;-69
2024/02/16 10:50:52;;;;;;;1.83;1.73;;;16.60;63.20;;;;;;5135494;27;20651;-69
2024/02/16 10:53:25;;;;;;;2.08;1.85;;;16.60;63.20;;;;;;5117892;27;20172;-68
2024/02/16 10:55:51;;;;;;;1.85;1.60;;;16.60;63.30;;;;;;5117709;27;20228;-69
2024/02/16 10:58:18;;;;;;;2.10;1.90;;;16.60;63.20;;;;;;5134890;27;20674;-69
2024/02/16 11:00:50;;;;;;;3.47;2.20;;;16.60;63.20;;;;;;5136072;27;20180;-70
2024/02/16 11:03:16;;;;;;;2.05;1.85;;;16.60;63.30;;;;;;5127004;27;20552;-69
2024/02/16 11:05:42;;;;;;;2.92;2.10;;;16.60;63.40;;;;;;5128751;27;20277;-70
2024/02/16 11:08:15;;;;;;;1.83;1.70;;;16.60;63.40;;;;;;5118506;27;20279;-69
2024/02/16 11:10:40;;;;;;;3.13;1.90;;;16.60;63.40;;;;;;5116962;27;20177;-69
2024/02/16 11:13:06;;;;;;;2.08;1.70;;;16.60;63.40;;;;;;5135263;27;20172;-69
2024/02/16 11:15:32;;;;;;;2.00;1.80;;;16.60;63.50;;;;;;5118760;27;20169;-70
2024/02/16 11:18:01;;;;;;;2.83;2.58;;;16.60;63.40;;;;;;5114334;28;20569;-69
2024/02/16 11:20:27;;;;;;;2.10;1.90;;;16.50;63.40;;;;;;5127410;27;20554;-71
2024/02/16 11:22:53;;;;;;;1.90;1.70;;;16.50;63.50;;;;;;5135417;27;20180;-70
2024/02/16 11:25:20;;;;;;;1.88;1.70;;;16.50;63.50;;;;;;5122049;27;20666;-71
2024/02/16 11:27:46;;;;;;;2.03;1.83;;;16.50;63.60;;;;;;5114743;28;20700;-71
2024/02/16 11:30:11;;;;;;;1.83;1.70;;;16.50;63.60;;;;;;5114685;28;20222;-69
2024/02/16 11:32:37;;;;;;;2.63;1.98;;;16.50;63.60;;;;;;5113810;28;20181;-69
2024/02/16 11:35:09;;;;;;;3.38;2.10;;;16.50;63.70;;;;;;5114750;28;20659;-69
2024/02/16 11:37:34;;;;;;;2.40;2.20;;;16.50;63.80;;;;;;5114187;28;20201;-69
2024/02/16 11:40:00;;;;;;;2.45;2.10;;;16.50;63.80;;;;;;5112636;28;20165;-69
2024/02/16 11:42:25;;;;;;;3.10;2.65;;;16.50;63.80;;;;;;5114379;28;20181;-73
2024/02/16 11:44:53;;;;;;;5.07;2.25;;;16.50;64.00;;;;;;5114744;28;20183;-73
2024/02/16 11:47:25;;;;;;;2.05;1.85;;;16.40;63.90;;;;;;5113233;28;20177;-73
2024/02/16 11:50:06;;;;;;;2.00;1.85;;;16.40;64.00;;;;;;5113306;28;20238;-72
2024/02/16 11:52:32;;;;;;;2.30;1.95;;;16.50;64.10;;;;;;5113617;28;20169;-72
2024/02/16 11:55:03;;;;;;;3.60;2.22;;;16.40;63.90;;;;;;5113655;28;20238;-71
2024/02/16 11:57:29;;;;;;;3.55;2.10;;;16.40;64.00;;;;;;5113821;28;20679;-72
2024/02/16 11:59:54;;;;;;;2.58;1.88;;;16.50;64.10;;;;;;5112613;28;20173;-72
2024/02/16 12:02:20;;;;;;;5.00;2.80;;;16.50;64.20;;;;;;5113436;28;20173;-68
2024/02/16 12:04:46;;;;;;;2.63;2.42;;;16.50;64.50;;;;;;5113807;28;20177;-66
2024/02/16 12:07:12;;;;;;;2.75;2.30;;;16.50;64.50;;;;;;5113105;28;20199;-66
2024/02/16 12:09:37;;;;;;;4.68;2.55;;;16.50;64.50;;;;;;5112731;28;20173;-66
2024/02/16 12:12:04;;;;;;;3.95;2.42;;;16.50;64.30;;;;;;5114166;28;20195;-66
2024/02/16 12:14:29;;;;;;;2.58;2.30;;;16.50;64.30;;;;;;5111567;28;20180;-66
2024/02/16 12:16:56;;;;;;;4.10;2.50;;;16.50;64.20;;;;;;5113833;28;20177;-71
2024/02/16 12:19:22;;;;;;;2.63;2.38;;;16.50;64.50;;;;;;5113470;28;20211;-73
2024/02/16 12:21:51;;;;;;;2.65;2.42;;;16.50;64.50;;;;;;5112985;28;20628;-73
2024/02/16 12:24:17;;;;;;;6.45;2.85;;;16.50;64.40;;;;;;5113271;28;20177;-71
2024/02/16 12:26:43;;;;;;;3.38;2.17;;;16.50;64.50;;;;;;5113751;28;20226;-70
2024/02/16 12:29:12;;;;;;;4.50;2.55;;;16.50;64.30;;;;;;5112793;28;20165;-69
2024/02/16 12:31:38;;;;;;;2.33;2.10;;;16.50;64.40;;;;;;5113248;28;20647;-69
2024/02/16 12:34:05;;;;;;;2.67;2.20;;;16.50;64.40;;;;;;5113457;28;20579;-71
2024/02/16 12:36:30;;;;;;;3.03;2.22;;;16.50;64.40;;;;;;5112375;28;20232;-71
2024/02/16 12:38:56;;;;;;;3.00;2.20;;;16.50;64.50;;;;;;5113481;28;20675;-71
2024/02/16 12:41:21;;;;;;;3.30;2.45;;;16.50;64.50;;;;;;5113119;28;20612;-71
2024/02/16 12:43:47;;;;;;;3.75;2.50;;;16.50;64.60;;;;;;5111507;28;20184;-71